sensor_id;sensor_type;location;lat;lon;timestamp;P1;durP1;ratioP1;P2;durP2;ratioP2
17864;SDS011;9058;52.018;4.202;2023-02-08T00:01:53;44.07;;;26.17;;
17864;SDS011;9058;52.018;4.202;2023-02-08T00:04:20;43.70;;;25.70;;
17864;SDS011;9058;52.018;4.202;2023-02-08T00:06:47;45.33;;;26.30;;
17864;SDS011;9058;52.018;4.202;2023-02-08T00:09:13;42.07;;;25.47;;
17864;SDS011;9058;52.018;4.202;2023-02-08T00:11:39;39.97;;;24.77;;
17864;SDS011;9058;52.018;4.202;2023-02-08T00:14:06;40.23;;;25.63;;
17864;SDS011;9058;52.018;4.202;2023-02-08T00:16:33;39.20;;;26.20;;
17864;SDS011;9058;52.018;4.202;2023-02-08T00:18:59;41.80;;;25.93;;
17864;SDS011;9058;52.018;4.202;2023-02-08T00:21:27;39.63;;;24.57;;
17864;SDS011;9058;52.018;4.202;2023-02-08T00:23:53;40.17;;;23.90;;
17864;SDS011;9058;52.018;4.202;2023-02-08T00:26:20;38.90;;;25.30;;
17864;SDS011;9058;52.018;4.202;2023-02-08T00:28:47;44.90;;;26.57;;
17864;SDS011;9058;52.018;4.202;2023-02-08T00:31:13;42.27;;;25.10;;
17864;SDS011;9058;52.018;4.202;2023-02-08T00:33:40;40.77;;;25.17;;
17864;SDS011;9058;52.018;4.202;2023-02-08T00:36:07;41.97;;;25.87;;
17864;SDS011;9058;52.018;4.202;2023-02-08T00:38:35;44.33;;;25.83;;
17864;SDS011;9058;52.018;4.202;2023-02-08T00:41:01;38.07;;;25.10;;
17864;SDS011;9058;52.018;4.202;2023-02-08T00:43:28;39.23;;;23.97;;
17864;SDS011;9058;52.018;4.202;2023-02-08T00:45:54;42.60;;;24.27;;
17864;SDS011;9058;52.018;4.202;2023-02-08T00:48:20;38.57;;;23.40;;
17864;SDS011;9058;52.018;4.202;2023-02-08T00:50:55;39.57;;;24.23;;
17864;SDS011;9058;52.018;4.202;2023-02-08T00:53:21;40.87;;;25.17;;
17864;SDS011;9058;52.018;4.202;2023-02-08T00:55:51;43.53;;;25.60;;
17864;SDS011;9058;52.018;4.202;2023-02-08T00:58:19;42.03;;;24.73;;
17864;SDS011;9058;52.018;4.202;2023-02-08T01:00:45;43.40;;;24.13;;
17864;SDS011;9058;52.018;4.202;2023-02-08T01:03:12;43.53;;;24.07;;
17864;SDS011;9058;52.018;4.202;2023-02-08T01:05:38;46.20;;;26.13;;
17864;SDS011;9058;52.018;4.202;2023-02-08T01:08:05;40.63;;;24.90;;
17864;SDS011;9058;52.018;4.202;2023-02-08T01:10:32;45.17;;;25.57;;
17864;SDS011;9058;52.018;4.202;2023-02-08T01:13:00;38.30;;;24.33;;
17864;SDS011;9058;52.018;4.202;2023-02-08T01:15:27;41.63;;;25.33;;
17864;SDS011;9058;52.018;4.202;2023-02-08T01:17:53;40.60;;;24.63;;
17864;SDS011;9058;52.018;4.202;2023-02-08T01:20:23;39.67;;;25.33;;
17864;SDS011;9058;52.018;4.202;2023-02-08T01:22:50;42.83;;;24.93;;
17864;SDS011;9058;52.018;4.202;2023-02-08T01:25:18;41.77;;;25.33;;
17864;SDS011;9058;52.018;4.202;2023-02-08T01:27:44;41.47;;;24.43;;
17864;SDS011;9058;52.018;4.202;2023-02-08T01:30:12;40.70;;;24.90;;
17864;SDS011;9058;52.018;4.202;2023-02-08T01:32:44;39.83;;;25.07;;
17864;SDS011;9058;52.018;4.202;2023-02-08T01:35:10;40.17;;;24.43;;
17864;SDS011;9058;52.018;4.202;2023-02-08T01:37:36;38.70;;;25.00;;
17864;SDS011;9058;52.018;4.202;2023-02-08T01:40:03;39.00;;;24.70;;
17864;SDS011;9058;52.018;4.202;2023-02-08T01:42:29;42.07;;;26.47;;
17864;SDS011;9058;52.018;4.202;2023-02-08T01:45:18;43.10;;;25.40;;
17864;SDS011;9058;52.018;4.202;2023-02-08T01:47:48;40.27;;;24.53;;
17864;SDS011;9058;52.018;4.202;2023-02-08T01:50:15;40.23;;;24.93;;
17864;SDS011;9058;52.018;4.202;2023-02-08T01:52:42;45.20;;;25.13;;
17864;SDS011;9058;52.018;4.202;2023-02-08T01:55:12;36.93;;;22.97;;
17864;SDS011;9058;52.018;4.202;2023-02-08T01:57:39;35.50;;;23.63;;
17864;SDS011;9058;52.018;4.202;2023-02-08T02:00:11;36.60;;;23.33;;
17864;SDS011;9058;52.018;4.202;2023-02-08T02:02:40;40.27;;;25.10;;
17864;SDS011;9058;52.018;4.202;2023-02-08T02:05:07;38.60;;;22.93;;
17864;SDS011;9058;52.018;4.202;2023-02-08T02:07:33;41.90;;;23.63;;
17864;SDS011;9058;52.018;4.202;2023-02-08T02:10:02;39.47;;;23.13;;
17864;SDS011;9058;52.018;4.202;2023-02-08T02:12:30;40.20;;;23.83;;
17864;SDS011;9058;52.018;4.202;2023-02-08T02:14:57;38.13;;;22.80;;
17864;SDS011;9058;52.018;4.202;2023-02-08T02:17:24;38.97;;;24.50;;
17864;SDS011;9058;52.018;4.202;2023-02-08T02:19:54;40.07;;;23.77;;
17864;SDS011;9058;52.018;4.202;2023-02-08T02:22:35;39.67;;;24.17;;
17864;SDS011;9058;52.018;4.202;2023-02-08T02:25:12;42.17;;;24.20;;
17864;SDS011;9058;52.018;4.202;2023-02-08T02:27:56;39.77;;;24.93;;
17864;SDS011;9058;52.018;4.202;2023-02-08T02:30:31;38.00;;;24.23;;
17864;SDS011;9058;52.018;4.202;2023-02-08T02:33:06;39.07;;;24.83;;
17864;SDS011;9058;52.018;4.202;2023-02-08T02:35:41;35.20;;;22.20;;
17864;SDS011;9058;52.018;4.202;2023-02-08T02:38:12;38.73;;;25.00;;
17864;SDS011;9058;52.018;4.202;2023-02-08T02:40:42;35.27;;;22.40;;
17864;SDS011;9058;52.018;4.202;2023-02-08T02:43:13;38.97;;;24.00;;
17864;SDS011;9058;52.018;4.202;2023-02-08T02:46:02;37.87;;;23.57;;
17864;SDS011;9058;52.018;4.202;2023-02-08T02:48:32;39.03;;;23.47;;
17864;SDS011;9058;52.018;4.202;2023-02-08T02:51:05;36.73;;;22.87;;
17864;SDS011;9058;52.018;4.202;2023-02-08T02:53:43;38.13;;;21.67;;
17864;SDS011;9058;52.018;4.202;2023-02-08T02:56:13;38.03;;;22.87;;
17864;SDS011;9058;52.018;4.202;2023-02-08T02:58:41;39.07;;;23.57;;
17864;SDS011;9058;52.018;4.202;2023-02-08T03:01:07;36.43;;;23.03;;
17864;SDS011;9058;52.018;4.202;2023-02-08T03:03:35;40.43;;;24.30;;
17864;SDS011;9058;52.018;4.202;2023-02-08T03:06:02;37.23;;;23.13;;
17864;SDS011;9058;52.018;4.202;2023-02-08T03:08:39;41.47;;;25.03;;
17864;SDS011;9058;52.018;4.202;2023-02-08T03:11:13;39.17;;;22.33;;
17864;SDS011;9058;52.018;4.202;2023-02-08T03:13:45;40.70;;;23.60;;
17864;SDS011;9058;52.018;4.202;2023-02-08T03:16:15;38.37;;;23.70;;
17864;SDS011;9058;52.018;4.202;2023-02-08T03:18:46;39.13;;;23.53;;
17864;SDS011;9058;52.018;4.202;2023-02-08T03:21:18;41.77;;;24.47;;
17864;SDS011;9058;52.018;4.202;2023-02-08T03:23:48;38.23;;;23.20;;
17864;SDS011;9058;52.018;4.202;2023-02-08T03:26:19;39.23;;;25.40;;
17864;SDS011;9058;52.018;4.202;2023-02-08T03:28:50;35.57;;;22.67;;
17864;SDS011;9058;52.018;4.202;2023-02-08T03:31:22;39.17;;;23.37;;
17864;SDS011;9058;52.018;4.202;2023-02-08T03:33:52;36.10;;;23.67;;
17864;SDS011;9058;52.018;4.202;2023-02-08T03:36:23;35.33;;;23.27;;
17864;SDS011;9058;52.018;4.202;2023-02-08T03:38:51;36.20;;;22.87;;
17864;SDS011;9058;52.018;4.202;2023-02-08T03:41:21;32.63;;;22.87;;
17864;SDS011;9058;52.018;4.202;2023-02-08T03:43:49;34.93;;;22.87;;
17864;SDS011;9058;52.018;4.202;2023-02-08T03:46:20;35.63;;;23.13;;
17864;SDS011;9058;52.018;4.202;2023-02-08T03:48:48;31.73;;;22.20;;
17864;SDS011;9058;52.018;4.202;2023-02-08T03:51:19;37.67;;;23.07;;
17864;SDS011;9058;52.018;4.202;2023-02-08T03:53:46;35.57;;;23.30;;
17864;SDS011;9058;52.018;4.202;2023-02-08T03:56:25;33.63;;;22.77;;
17864;SDS011;9058;52.018;4.202;2023-02-08T03:58:57;34.93;;;21.77;;
17864;SDS011;9058;52.018;4.202;2023-02-08T04:01:26;35.77;;;23.80;;
17864;SDS011;9058;52.018;4.202;2023-02-08T04:03:54;32.47;;;23.00;;
17864;SDS011;9058;52.018;4.202;2023-02-08T04:06:23;34.03;;;22.67;;
17864;SDS011;9058;52.018;4.202;2023-02-08T04:08:50;35.20;;;22.27;;
17864;SDS011;9058;52.018;4.202;2023-02-08T04:11:16;35.13;;;22.83;;
17864;SDS011;9058;52.018;4.202;2023-02-08T04:13:43;41.47;;;22.40;;
17864;SDS011;9058;52.018;4.202;2023-02-08T04:16:10;39.93;;;23.47;;
17864;SDS011;9058;52.018;4.202;2023-02-08T04:18:37;37.20;;;22.47;;
17864;SDS011;9058;52.018;4.202;2023-02-08T04:21:04;35.40;;;22.43;;
17864;SDS011;9058;52.018;4.202;2023-02-08T04:23:34;35.40;;;22.30;;
17864;SDS011;9058;52.018;4.202;2023-02-08T04:26:00;34.70;;;22.70;;
17864;SDS011;9058;52.018;4.202;2023-02-08T04:28:28;38.13;;;22.43;;
17864;SDS011;9058;52.018;4.202;2023-02-08T04:30:54;36.60;;;23.37;;
17864;SDS011;9058;52.018;4.202;2023-02-08T04:33:23;37.83;;;23.43;;
17864;SDS011;9058;52.018;4.202;2023-02-08T04:35:49;36.27;;;24.43;;
17864;SDS011;9058;52.018;4.202;2023-02-08T04:38:15;40.30;;;24.57;;
17864;SDS011;9058;52.018;4.202;2023-02-08T04:40:43;41.80;;;23.90;;
17864;SDS011;9058;52.018;4.202;2023-02-08T04:43:09;42.17;;;25.40;;
17864;SDS011;9058;52.018;4.202;2023-02-08T04:45:37;37.70;;;23.37;;
17864;SDS011;9058;52.018;4.202;2023-02-08T04:48:03;36.93;;;25.53;;
17864;SDS011;9058;52.018;4.202;2023-02-08T04:50:31;37.33;;;23.30;;
17864;SDS011;9058;52.018;4.202;2023-02-08T04:52:59;36.47;;;23.50;;
17864;SDS011;9058;52.018;4.202;2023-02-08T04:55:25;35.57;;;23.50;;
17864;SDS011;9058;52.018;4.202;2023-02-08T04:57:53;37.50;;;24.03;;
17864;SDS011;9058;52.018;4.202;2023-02-08T05:00:19;35.17;;;22.43;;
17864;SDS011;9058;52.018;4.202;2023-02-08T05:02:46;32.33;;;21.97;;
17864;SDS011;9058;52.018;4.202;2023-02-08T05:05:12;35.27;;;22.60;;
17864;SDS011;9058;52.018;4.202;2023-02-08T05:07:38;34.90;;;22.50;;
17864;SDS011;9058;52.018;4.202;2023-02-08T05:10:05;34.17;;;22.47;;
17864;SDS011;9058;52.018;4.202;2023-02-08T05:12:32;37.43;;;24.00;;
17864;SDS011;9058;52.018;4.202;2023-02-08T05:15:00;34.73;;;22.60;;
17864;SDS011;9058;52.018;4.202;2023-02-08T05:17:26;36.50;;;23.27;;
17864;SDS011;9058;52.018;4.202;2023-02-08T05:19:54;36.57;;;23.77;;
17864;SDS011;9058;52.018;4.202;2023-02-08T05:22:20;37.53;;;24.43;;
17864;SDS011;9058;52.018;4.202;2023-02-08T05:24:48;37.20;;;24.47;;
17864;SDS011;9058;52.018;4.202;2023-02-08T05:27:14;36.10;;;24.03;;
17864;SDS011;9058;52.018;4.202;2023-02-08T05:29:40;40.17;;;24.87;;
17864;SDS011;9058;52.018;4.202;2023-02-08T05:32:08;34.57;;;22.50;;
17864;SDS011;9058;52.018;4.202;2023-02-08T05:34:35;37.53;;;24.07;;
17864;SDS011;9058;52.018;4.202;2023-02-08T05:37:03;37.10;;;23.47;;
17864;SDS011;9058;52.018;4.202;2023-02-08T05:39:29;38.70;;;25.10;;
17864;SDS011;9058;52.018;4.202;2023-02-08T05:41:56;34.23;;;22.60;;
17864;SDS011;9058;52.018;4.202;2023-02-08T05:44:22;35.80;;;22.83;;
17864;SDS011;9058;52.018;4.202;2023-02-08T05:46:49;39.10;;;24.60;;
17864;SDS011;9058;52.018;4.202;2023-02-08T05:49:18;35.80;;;23.77;;
17864;SDS011;9058;52.018;4.202;2023-02-08T05:51:44;35.97;;;24.13;;
17864;SDS011;9058;52.018;4.202;2023-02-08T05:54:11;39.20;;;24.13;;
17864;SDS011;9058;52.018;4.202;2023-02-08T05:56:38;38.13;;;24.67;;
17864;SDS011;9058;52.018;4.202;2023-02-08T05:59:05;34.63;;;22.73;;
17864;SDS011;9058;52.018;4.202;2023-02-08T06:01:31;36.20;;;23.33;;
17864;SDS011;9058;52.018;4.202;2023-02-08T06:03:57;31.73;;;22.53;;
17864;SDS011;9058;52.018;4.202;2023-02-08T06:06:28;37.50;;;23.60;;
17864;SDS011;9058;52.018;4.202;2023-02-08T06:08:54;38.27;;;23.73;;
17864;SDS011;9058;52.018;4.202;2023-02-08T06:11:21;35.40;;;23.77;;
17864;SDS011;9058;52.018;4.202;2023-02-08T06:13:47;33.30;;;22.77;;
17864;SDS011;9058;52.018;4.202;2023-02-08T06:16:14;38.97;;;23.90;;
17864;SDS011;9058;52.018;4.202;2023-02-08T06:18:40;34.77;;;22.97;;
17864;SDS011;9058;52.018;4.202;2023-02-08T06:21:06;37.20;;;23.50;;
17864;SDS011;9058;52.018;4.202;2023-02-08T06:23:35;36.93;;;23.47;;
17864;SDS011;9058;52.018;4.202;2023-02-08T06:26:01;36.60;;;23.47;;
17864;SDS011;9058;52.018;4.202;2023-02-08T06:28:28;35.90;;;23.97;;
17864;SDS011;9058;52.018;4.202;2023-02-08T06:30:54;38.60;;;24.83;;
17864;SDS011;9058;52.018;4.202;2023-02-08T06:36:15;38.77;;;23.30;;
17864;SDS011;9058;52.018;4.202;2023-02-08T06:38:43;37.37;;;22.97;;
17864;SDS011;9058;52.018;4.202;2023-02-08T06:41:09;38.13;;;22.87;;
17864;SDS011;9058;52.018;4.202;2023-02-08T06:43:36;40.13;;;23.80;;
17864;SDS011;9058;52.018;4.202;2023-02-08T06:46:02;37.47;;;22.77;;
17864;SDS011;9058;52.018;4.202;2023-02-08T06:48:32;46.07;;;25.17;;
17864;SDS011;9058;52.018;4.202;2023-02-08T06:50:59;36.73;;;23.33;;
17864;SDS011;9058;52.018;4.202;2023-02-08T06:53:25;38.67;;;23.97;;
17864;SDS011;9058;52.018;4.202;2023-02-08T06:55:53;37.90;;;24.00;;
17864;SDS011;9058;52.018;4.202;2023-02-08T06:58:20;36.10;;;23.67;;
17864;SDS011;9058;52.018;4.202;2023-02-08T07:00:46;34.77;;;23.53;;
17864;SDS011;9058;52.018;4.202;2023-02-08T07:03:13;33.60;;;22.37;;
17864;SDS011;9058;52.018;4.202;2023-02-08T07:05:40;37.97;;;23.07;;
17864;SDS011;9058;52.018;4.202;2023-02-08T07:08:06;35.93;;;22.93;;
17864;SDS011;9058;52.018;4.202;2023-02-08T07:10:33;34.23;;;23.27;;
17864;SDS011;9058;52.018;4.202;2023-02-08T07:13:01;36.37;;;23.63;;
17864;SDS011;9058;52.018;4.202;2023-02-08T07:15:28;41.90;;;25.30;;
17864;SDS011;9058;52.018;4.202;2023-02-08T07:17:55;38.77;;;24.43;;
17864;SDS011;9058;52.018;4.202;2023-02-08T07:20:21;37.53;;;24.63;;
17864;SDS011;9058;52.018;4.202;2023-02-08T07:22:48;40.10;;;24.70;;
17864;SDS011;9058;52.018;4.202;2023-02-08T07:25:14;37.70;;;23.90;;
17864;SDS011;9058;52.018;4.202;2023-02-08T07:27:40;33.97;;;22.80;;
17864;SDS011;9058;52.018;4.202;2023-02-08T07:30:09;34.00;;;23.60;;
17864;SDS011;9058;52.018;4.202;2023-02-08T07:32:35;40.00;;;24.90;;
17864;SDS011;9058;52.018;4.202;2023-02-08T07:35:02;38.87;;;26.30;;
17864;SDS011;9058;52.018;4.202;2023-02-08T07:37:28;35.17;;;25.63;;
17864;SDS011;9058;52.018;4.202;2023-02-08T07:39:56;39.40;;;27.33;;
17864;SDS011;9058;52.018;4.202;2023-02-08T07:42:23;38.40;;;26.10;;
17864;SDS011;9058;52.018;4.202;2023-02-08T07:44:50;38.87;;;25.67;;
17864;SDS011;9058;52.018;4.202;2023-02-08T07:47:18;37.83;;;23.73;;
17864;SDS011;9058;52.018;4.202;2023-02-08T07:49:44;36.17;;;24.63;;
17864;SDS011;9058;52.018;4.202;2023-02-08T07:52:11;36.90;;;25.90;;
17864;SDS011;9058;52.018;4.202;2023-02-08T07:54:37;35.70;;;24.67;;
17864;SDS011;9058;52.018;4.202;2023-02-08T07:57:03;37.53;;;23.50;;
17864;SDS011;9058;52.018;4.202;2023-02-08T07:59:30;34.77;;;23.57;;
17864;SDS011;9058;52.018;4.202;2023-02-08T08:01:56;35.23;;;23.83;;
17864;SDS011;9058;52.018;4.202;2023-02-08T08:04:24;32.77;;;22.73;;
17864;SDS011;9058;52.018;4.202;2023-02-08T08:06:50;35.67;;;23.90;;
17864;SDS011;9058;52.018;4.202;2023-02-08T08:09:17;35.43;;;23.90;;
17864;SDS011;9058;52.018;4.202;2023-02-08T08:11:44;38.60;;;25.30;;
17864;SDS011;9058;52.018;4.202;2023-02-08T08:14:10;36.33;;;24.53;;
17864;SDS011;9058;52.018;4.202;2023-02-08T08:16:37;32.97;;;24.43;;
17864;SDS011;9058;52.018;4.202;2023-02-08T08:19:04;33.20;;;25.93;;
17864;SDS011;9058;52.018;4.202;2023-02-08T08:21:33;35.00;;;24.57;;
17864;SDS011;9058;52.018;4.202;2023-02-08T08:23:59;30.73;;;24.00;;
17864;SDS011;9058;52.018;4.202;2023-02-08T08:26:25;31.73;;;23.43;;
17864;SDS011;9058;52.018;4.202;2023-02-08T08:28:53;31.13;;;23.93;;
17864;SDS011;9058;52.018;4.202;2023-02-08T08:31:20;30.33;;;23.77;;
17864;SDS011;9058;52.018;4.202;2023-02-08T08:33:47;33.60;;;22.73;;
17864;SDS011;9058;52.018;4.202;2023-02-08T08:36:14;32.97;;;22.30;;
17864;SDS011;9058;52.018;4.202;2023-02-08T08:38:42;31.70;;;20.83;;
17864;SDS011;9058;52.018;4.202;2023-02-08T08:41:09;27.87;;;21.03;;
17864;SDS011;9058;52.018;4.202;2023-02-08T08:43:35;26.63;;;20.97;;
17864;SDS011;9058;52.018;4.202;2023-02-08T08:46:03;26.07;;;19.60;;
17864;SDS011;9058;52.018;4.202;2023-02-08T08:48:30;26.97;;;19.53;;
17864;SDS011;9058;52.018;4.202;2023-02-08T08:50:56;26.33;;;19.37;;
17864;SDS011;9058;52.018;4.202;2023-02-08T08:53:22;27.43;;;18.90;;
17864;SDS011;9058;52.018;4.202;2023-02-08T08:55:51;21.47;;;17.03;;
17864;SDS011;9058;52.018;4.202;2023-02-08T08:58:17;23.93;;;18.43;;
17864;SDS011;9058;52.018;4.202;2023-02-08T09:00:44;23.20;;;17.57;;
17864;SDS011;9058;52.018;4.202;2023-02-08T09:03:10;26.87;;;18.17;;
17864;SDS011;9058;52.018;4.202;2023-02-08T09:05:36;25.47;;;17.27;;
17864;SDS011;9058;52.018;4.202;2023-02-08T09:08:04;20.13;;;15.83;;
17864;SDS011;9058;52.018;4.202;2023-02-08T09:10:30;26.63;;;15.93;;
17864;SDS011;9058;52.018;4.202;2023-02-08T09:12:59;22.17;;;16.23;;
17864;SDS011;9058;52.018;4.202;2023-02-08T09:15:25;22.10;;;16.27;;
17864;SDS011;9058;52.018;4.202;2023-02-08T09:17:52;21.57;;;15.30;;
17864;SDS011;9058;52.018;4.202;2023-02-08T09:20:18;27.57;;;16.33;;
17864;SDS011;9058;52.018;4.202;2023-02-08T09:22:45;20.37;;;15.37;;
17864;SDS011;9058;52.018;4.202;2023-02-08T09:25:12;21.00;;;16.00;;
17864;SDS011;9058;52.018;4.202;2023-02-08T09:27:38;20.73;;;16.80;;
17864;SDS011;9058;52.018;4.202;2023-02-08T09:30:06;19.27;;;15.50;;
17864;SDS011;9058;52.018;4.202;2023-02-08T09:32:33;19.90;;;16.17;;
17864;SDS011;9058;52.018;4.202;2023-02-08T09:35:00;20.90;;;15.53;;
17864;SDS011;9058;52.018;4.202;2023-02-08T09:37:27;19.90;;;15.13;;
17864;SDS011;9058;52.018;4.202;2023-02-08T09:39:54;18.93;;;14.90;;
17864;SDS011;9058;52.018;4.202;2023-02-08T09:42:25;18.63;;;16.07;;
17864;SDS011;9058;52.018;4.202;2023-02-08T09:44:57;21.03;;;15.60;;
17864;SDS011;9058;52.018;4.202;2023-02-08T09:47:29;20.57;;;15.90;;
17864;SDS011;9058;52.018;4.202;2023-02-08T09:49:57;19.73;;;14.13;;
17864;SDS011;9058;52.018;4.202;2023-02-08T09:52:26;20.47;;;15.43;;
17864;SDS011;9058;52.018;4.202;2023-02-08T09:54:55;18.30;;;14.60;;
17864;SDS011;9058;52.018;4.202;2023-02-08T09:57:27;18.97;;;13.33;;
17864;SDS011;9058;52.018;4.202;2023-02-08T09:59:54;21.27;;;15.90;;
17864;SDS011;9058;52.018;4.202;2023-02-08T10:02:22;18.47;;;14.30;;
17864;SDS011;9058;52.018;4.202;2023-02-08T10:04:54;20.17;;;14.77;;
17864;SDS011;9058;52.018;4.202;2023-02-08T10:07:22;18.33;;;13.27;;
17864;SDS011;9058;52.018;4.202;2023-02-08T10:09:49;20.87;;;15.43;;
17864;SDS011;9058;52.018;4.202;2023-02-08T10:12:17;19.50;;;14.57;;
17864;SDS011;9058;52.018;4.202;2023-02-08T10:14:48;19.60;;;14.60;;
17864;SDS011;9058;52.018;4.202;2023-02-08T10:17:23;18.57;;;14.43;;
17864;SDS011;9058;52.018;4.202;2023-02-08T10:19:59;20.43;;;15.00;;
17864;SDS011;9058;52.018;4.202;2023-02-08T10:22:29;19.37;;;14.83;;
17864;SDS011;9058;52.018;4.202;2023-02-08T10:25:06;21.53;;;13.80;;
17864;SDS011;9058;52.018;4.202;2023-02-08T10:27:39;18.83;;;14.47;;
17864;SDS011;9058;52.018;4.202;2023-02-08T10:30:14;17.60;;;14.07;;
17864;SDS011;9058;52.018;4.202;2023-02-08T10:32:46;18.83;;;13.93;;
17864;SDS011;9058;52.018;4.202;2023-02-08T10:35:19;18.03;;;15.07;;
17864;SDS011;9058;52.018;4.202;2023-02-08T10:37:47;20.07;;;13.47;;
17864;SDS011;9058;52.018;4.202;2023-02-08T10:40:18;17.17;;;14.03;;
17864;SDS011;9058;52.018;4.202;2023-02-08T10:42:50;18.50;;;13.80;;
17864;SDS011;9058;52.018;4.202;2023-02-08T10:45:18;18.73;;;13.57;;
17864;SDS011;9058;52.018;4.202;2023-02-08T10:47:47;22.03;;;13.77;;
17864;SDS011;9058;52.018;4.202;2023-02-08T10:50:18;17.27;;;12.63;;
17864;SDS011;9058;52.018;4.202;2023-02-08T10:52:47;18.07;;;13.47;;
17864;SDS011;9058;52.018;4.202;2023-02-08T10:55:15;17.02;;;13.10;;
17864;SDS011;9058;52.018;4.202;2023-02-08T10:57:42;15.05;;;12.80;;
17864;SDS011;9058;52.018;4.202;2023-02-08T11:00:10;16.90;;;12.57;;
17864;SDS011;9058;52.018;4.202;2023-02-08T11:02:39;15.73;;;12.47;;
17864;SDS011;9058;52.018;4.202;2023-02-08T11:05:07;17.52;;;12.60;;
17864;SDS011;9058;52.018;4.202;2023-02-08T11:07:35;16.05;;;12.63;;
17864;SDS011;9058;52.018;4.202;2023-02-08T11:12:43;17.55;;;12.38;;
17864;SDS011;9058;52.018;4.202;2023-02-08T11:15:20;20.92;;;13.50;;
17864;SDS011;9058;52.018;4.202;2023-02-08T11:17:51;22.17;;;13.90;;
17864;SDS011;9058;52.018;4.202;2023-02-08T11:20:19;17.55;;;12.65;;
17864;SDS011;9058;52.018;4.202;2023-02-08T11:22:48;15.93;;;11.93;;
17864;SDS011;9058;52.018;4.202;2023-02-08T11:25:29;14.13;;;11.38;;
17864;SDS011;9058;52.018;4.202;2023-02-08T11:27:55;16.73;;;11.60;;
17864;SDS011;9058;52.018;4.202;2023-02-08T11:30:24;15.90;;;12.52;;
17864;SDS011;9058;52.018;4.202;2023-02-08T11:35:32;15.15;;;11.15;;
17864;SDS011;9058;52.018;4.202;2023-02-08T11:38:00;14.45;;;11.32;;
17864;SDS011;9058;52.018;4.202;2023-02-08T11:40:27;15.40;;;10.35;;
17864;SDS011;9058;52.018;4.202;2023-02-08T11:42:54;13.20;;;11.25;;
17864;SDS011;9058;52.018;4.202;2023-02-08T11:45:22;11.15;;;10.00;;
17864;SDS011;9058;52.018;4.202;2023-02-08T11:47:49;13.50;;;10.57;;
17864;SDS011;9058;52.018;4.202;2023-02-08T11:50:20;12.48;;;9.82;;
17864;SDS011;9058;52.018;4.202;2023-02-08T11:52:50;13.30;;;10.50;;
17864;SDS011;9058;52.018;4.202;2023-02-08T11:55:23;13.95;;;10.50;;
17864;SDS011;9058;52.018;4.202;2023-02-08T11:57:51;13.13;;;10.93;;
17864;SDS011;9058;52.018;4.202;2023-02-08T12:00:19;15.02;;;11.63;;
17864;SDS011;9058;52.018;4.202;2023-02-08T12:02:45;16.15;;;11.43;;
17864;SDS011;9058;52.018;4.202;2023-02-08T12:05:14;12.35;;;9.40;;
17864;SDS011;9058;52.018;4.202;2023-02-08T12:07:45;14.98;;;10.48;;
17864;SDS011;9058;52.018;4.202;2023-02-08T12:10:29;13.43;;;9.82;;
17864;SDS011;9058;52.018;4.202;2023-02-08T12:13:05;10.95;;;9.80;;
17864;SDS011;9058;52.018;4.202;2023-02-08T12:15:39;13.65;;;10.50;;
17864;SDS011;9058;52.018;4.202;2023-02-08T12:18:17;14.80;;;10.65;;
17864;SDS011;9058;52.018;4.202;2023-02-08T12:20:45;15.55;;;11.27;;
17864;SDS011;9058;52.018;4.202;2023-02-08T12:23:17;12.93;;;11.13;;
17864;SDS011;9058;52.018;4.202;2023-02-08T12:25:50;13.95;;;10.60;;
17864;SDS011;9058;52.018;4.202;2023-02-08T12:28:21;16.90;;;9.98;;
17864;SDS011;9058;52.018;4.202;2023-02-08T12:30:50;16.50;;;10.70;;
17864;SDS011;9058;52.018;4.202;2023-02-08T12:33:26;13.23;;;10.80;;
17864;SDS011;9058;52.018;4.202;2023-02-08T12:36:03;15.38;;;10.93;;
17864;SDS011;9058;52.018;4.202;2023-02-08T12:38:36;15.77;;;10.23;;
17864;SDS011;9058;52.018;4.202;2023-02-08T12:41:25;11.65;;;9.20;;
17864;SDS011;9058;52.018;4.202;2023-02-08T12:43:55;13.65;;;9.27;;
17864;SDS011;9058;52.018;4.202;2023-02-08T12:46:30;10.95;;;9.50;;
17864;SDS011;9058;52.018;4.202;2023-02-08T12:51:35;10.10;;;8.55;;
17864;SDS011;9058;52.018;4.202;2023-02-08T12:54:06;11.02;;;9.13;;
17864;SDS011;9058;52.018;4.202;2023-02-08T12:56:37;10.07;;;9.07;;
17864;SDS011;9058;52.018;4.202;2023-02-08T12:59:10;12.25;;;9.43;;
17864;SDS011;9058;52.018;4.202;2023-02-08T13:01:43;10.07;;;9.07;;
17864;SDS011;9058;52.018;4.202;2023-02-08T13:04:11;10.45;;;8.68;;
17864;SDS011;9058;52.018;4.202;2023-02-08T13:06:40;10.98;;;8.68;;
17864;SDS011;9058;52.018;4.202;2023-02-08T13:09:10;10.82;;;9.63;;
17864;SDS011;9058;52.018;4.202;2023-02-08T13:11:42;11.75;;;10.40;;
17864;SDS011;9058;52.018;4.202;2023-02-08T13:14:10;10.60;;;9.50;;
17864;SDS011;9058;52.018;4.202;2023-02-08T13:16:38;10.07;;;8.95;;
17864;SDS011;9058;52.018;4.202;2023-02-08T13:19:17;10.07;;;9.02;;
17864;SDS011;9058;52.018;4.202;2023-02-08T13:21:46;13.10;;;9.98;;
17864;SDS011;9058;52.018;4.202;2023-02-08T13:24:17;10.93;;;9.80;;
17864;SDS011;9058;52.018;4.202;2023-02-08T13:26:46;10.45;;;8.80;;
17864;SDS011;9058;52.018;4.202;2023-02-08T13:29:14;9.73;;;8.55;;
17864;SDS011;9058;52.018;4.202;2023-02-08T13:31:42;11.52;;;8.98;;
17864;SDS011;9058;52.018;4.202;2023-02-08T13:34:11;11.30;;;9.45;;
17864;SDS011;9058;52.018;4.202;2023-02-08T13:36:40;10.13;;;8.68;;
17864;SDS011;9058;52.018;4.202;2023-02-08T13:39:07;10.93;;;9.27;;
17864;SDS011;9058;52.018;4.202;2023-02-08T13:41:34;11.52;;;10.32;;
17864;SDS011;9058;52.018;4.202;2023-02-08T13:44:03;10.75;;;9.25;;
17864;SDS011;9058;52.018;4.202;2023-02-08T13:46:34;11.23;;;9.57;;
17864;SDS011;9058;52.018;4.202;2023-02-08T13:49:01;10.65;;;8.85;;
17864;SDS011;9058;52.018;4.202;2023-02-08T13:51:49;11.82;;;9.43;;
17864;SDS011;9058;52.018;4.202;2023-02-08T13:54:16;11.40;;;9.00;;
17864;SDS011;9058;52.018;4.202;2023-02-08T13:56:44;10.25;;;9.10;;
17864;SDS011;9058;52.018;4.202;2023-02-08T13:59:25;11.00;;;9.77;;
17864;SDS011;9058;52.018;4.202;2023-02-08T14:04:51;11.02;;;8.88;;
17864;SDS011;9058;52.018;4.202;2023-02-08T14:07:23;11.18;;;9.98;;
17864;SDS011;9058;52.018;4.202;2023-02-08T14:10:03;9.75;;;8.50;;
17864;SDS011;9058;52.018;4.202;2023-02-08T14:12:34;13.27;;;8.98;;
17864;SDS011;9058;52.018;4.202;2023-02-08T14:15:15;11.77;;;9.13;;
17864;SDS011;9058;52.018;4.202;2023-02-08T14:17:52;11.48;;;10.27;;
17864;SDS011;9058;52.018;4.202;2023-02-08T14:20:20;12.00;;;9.23;;
17864;SDS011;9058;52.018;4.202;2023-02-08T14:22:48;11.10;;;9.40;;
17864;SDS011;9058;52.018;4.202;2023-02-08T14:25:15;12.38;;;8.80;;
17864;SDS011;9058;52.018;4.202;2023-02-08T14:27:48;13.50;;;7.90;;
17864;SDS011;9058;52.018;4.202;2023-02-08T14:32:49;9.38;;;7.60;;
17864;SDS011;9058;52.018;4.202;2023-02-08T14:35:17;9.40;;;7.88;;
17864;SDS011;9058;52.018;4.202;2023-02-08T14:37:46;9.13;;;7.63;;
17864;SDS011;9058;52.018;4.202;2023-02-08T14:40:30;10.02;;;8.32;;
17864;SDS011;9058;52.018;4.202;2023-02-08T14:42:57;9.10;;;7.35;;
17864;SDS011;9058;52.018;4.202;2023-02-08T14:45:25;11.27;;;8.45;;
17864;SDS011;9058;52.018;4.202;2023-02-08T14:47:56;8.90;;;7.78;;
17864;SDS011;9058;52.018;4.202;2023-02-08T14:50:24;9.48;;;7.43;;
17864;SDS011;9058;52.018;4.202;2023-02-08T14:52:53;9.55;;;7.13;;
17864;SDS011;9058;52.018;4.202;2023-02-08T14:55:20;9.95;;;7.55;;
17864;SDS011;9058;52.018;4.202;2023-02-08T14:57:51;8.77;;;7.18;;
17864;SDS011;9058;52.018;4.202;2023-02-08T15:00:20;8.70;;;6.80;;
17864;SDS011;9058;52.018;4.202;2023-02-08T15:02:47;9.30;;;6.75;;
17864;SDS011;9058;52.018;4.202;2023-02-08T15:05:21;10.13;;;7.38;;